Time;durP1;ratioP1;P1;durP2;ratioP2;P2;SDS_P1;SDS_P2;PMS_P1;PMS_P2;Temp;Humidity;BMP_temperature;BMP_pressure;BME280_temperature;BME280_humidity;BME280_pressure;Samples;Min_cycle;Max_cycle;Signal;HPM_P1;HPM_P2
2022/11/16 00:01:50;;;;;;;21.87;18.50;;;;;;;;;;5017099;28;20235;-80
2022/11/16 00:04:16;;;;;;;24.10;19.57;;;;;;;;;;4984041;28;20201;-81
2022/11/16 00:06:44;;;;;;;27.13;21.67;;;;;;;;;;5000747;28;20238;-80
2022/11/16 00:09:24;;;;;;;26.90;20.40;;;;;;;;;;4997193;28;20199;-80
2022/11/16 00:11:51;;;;;;;27.00;20.07;;;;;;;;;;5002855;28;20238;-80
2022/11/16 00:14:18;;;;;;;26.00;20.90;;;;;;;;;;5016068;28;20242;-80
2022/11/16 00:16:44;;;;;;;25.13;20.87;;;;;;;;;;5017206;28;20202;-80
2022/11/16 00:19:11;;;;;;;25.17;20.47;;;;;;;;;;5021219;28;21631;-80
2022/11/16 00:21:37;;;;;;;27.73;20.57;;;;;;;;;;4981984;28;20189;-80
2022/11/16 00:24:03;;;;;;;28.17;20.83;;;;;;;;;;5013269;28;20196;-80
2022/11/16 00:26:29;;;;;;;26.43;21.50;;;;;;;;;;5006949;28;20196;-80
2022/11/16 00:28:55;;;;;;;30.37;22.60;;;;;;;;;;4993286;28;20196;-80
2022/11/16 00:31:22;;;;;;;27.60;21.60;;;;;;;;;;5030606;28;20181;-80
2022/11/16 00:33:48;;;;;;;30.53;21.43;;;;;;;;;;5016834;28;20327;-80
2022/11/16 00:36:14;;;;;;;27.93;21.93;;;;;;;;;;5016607;28;20220;-80
2022/11/16 00:38:40;;;;;;;28.00;21.33;;;;;;;;;;5016809;28;20230;-82
2022/11/16 00:41:07;;;;;;;28.43;21.43;;;;;;;;;;5015921;28;20232;-82
2022/11/16 00:43:33;;;;;;;30.57;22.73;;;;;;;;;;5016520;28;20214;-82
2022/11/16 00:45:59;;;;;;;27.40;21.70;;;;;;;;;;5000395;28;20200;-81
2022/11/16 00:48:25;;;;;;;32.30;22.43;;;;;;;;;;5016245;28;20180;-81
2022/11/16 00:50:51;;;;;;;30.50;22.37;;;;;;;;;;5033237;28;20184;-80
2022/11/16 00:53:18;;;;;;;29.03;21.83;;;;;;;;;;5016422;28;20230;-80
2022/11/16 00:55:45;;;;;;;30.27;23.40;;;;;;;;;;5044942;28;20188;-80
2022/11/16 00:58:11;;;;;;;27.67;21.63;;;;;;;;;;5003361;28;20215;-80
2022/11/16 01:00:37;;;;;;;30.70;22.80;;;;;;;;;;5033158;28;20213;-81
2022/11/16 01:03:03;;;;;;;32.80;23.43;;;;;;;;;;5000049;28;20279;-80
2022/11/16 01:05:30;;;;;;;31.67;22.83;;;;;;;;;;5015196;28;20195;-80
2022/11/16 01:07:56;;;;;;;29.30;22.33;;;;;;;;;;5032343;28;20192;-81
2022/11/16 01:10:22;;;;;;;26.93;22.23;;;;;;;;;;5015443;28;20231;-80
2022/11/16 01:12:49;;;;;;;30.90;22.17;;;;;;;;;;5016445;28;20180;-81
2022/11/16 01:15:16;;;;;;;29.20;22.17;;;;;;;;;;5008338;28;20200;-81
2022/11/16 01:17:42;;;;;;;28.90;21.63;;;;;;;;;;5034087;28;20207;-81
2022/11/16 01:20:11;;;;;;;32.60;22.87;;;;;;;;;;5015602;28;20216;-81
2022/11/16 01:22:38;;;;;;;29.33;21.80;;;;;;;;;;5009043;28;20182;-81
2022/11/16 01:25:05;;;;;;;31.03;21.87;;;;;;;;;;5030254;28;20188;-82
2022/11/16 01:27:31;;;;;;;26.43;21.33;;;;;;;;;;5016557;28;20193;-81
2022/11/16 01:29:57;;;;;;;25.77;21.23;;;;;;;;;;5015034;28;20188;-82
2022/11/16 01:32:23;;;;;;;29.40;22.33;;;;;;;;;;4999984;28;20210;-81
2022/11/16 01:34:49;;;;;;;35.13;22.60;;;;;;;;;;5014869;28;20204;-81
2022/11/16 01:37:16;;;;;;;35.90;23.70;;;;;;;;;;5002095;28;20187;-80
2022/11/16 01:39:42;;;;;;;30.53;22.47;;;;;;;;;;5036593;28;20247;-80
2022/11/16 01:42:15;;;;;;;26.40;21.63;;;;;;;;;;5019368;28;20188;-81
2022/11/16 01:44:41;;;;;;;30.00;22.50;;;;;;;;;;5019833;28;20283;-82
2022/11/16 01:47:09;;;;;;;30.83;21.57;;;;;;;;;;5004584;28;20216;-82
2022/11/16 01:49:37;;;;;;;29.60;22.50;;;;;;;;;;5033156;28;20275;-81
2022/11/16 01:52:08;;;;;;;28.93;22.53;;;;;;;;;;5018924;28;20189;-82
2022/11/16 01:54:35;;;;;;;28.43;21.43;;;;;;;;;;5013104;28;20323;-81
2022/11/16 01:57:03;;;;;;;29.17;20.77;;;;;;;;;;5016354;28;20193;-81
2022/11/16 01:59:29;;;;;;;31.43;22.50;;;;;;;;;;5017744;28;20208;-82
2022/11/16 02:01:55;;;;;;;27.40;22.07;;;;;;;;;;5017771;28;20192;-81
2022/11/16 02:04:21;;;;;;;32.30;22.33;;;;;;;;;;5002969;28;20184;-81
2022/11/16 02:07:06;;;;;;;29.87;22.30;;;;;;;;;;5002881;28;20196;-78
2022/11/16 02:12:17;;;;;;;30.83;23.13;;;;;;;;;;5035520;28;20243;-78
2022/11/16 02:14:46;;;;;;;34.67;23.90;;;;;;;;;;5036822;28;20184;-80
2022/11/16 02:17:19;;;;;;;34.17;24.77;;;;;;;;;;5021264;28;20323;-80
2022/11/16 02:19:57;;;;;;;31.00;23.77;;;;;;;;;;5018854;28;20223;-81
2022/11/16 02:22:29;;;;;;;31.70;24.77;;;;;;;;;;5017674;28;20224;-82
2022/11/16 02:24:55;;;;;;;34.57;25.93;;;;;;;;;;5007232;28;20188;-78
2022/11/16 02:27:40;;;;;;;36.17;26.63;;;;;;;;;;5016804;28;20271;-78
2022/11/16 02:30:06;;;;;;;37.00;26.27;;;;;;;;;;5017703;28;20279;-78
2022/11/16 02:32:38;;;;;;;35.07;26.07;;;;;;;;;;5016170;28;20181;-78
2022/11/16 02:35:04;;;;;;;35.37;26.03;;;;;;;;;;5018091;28;20293;-78
2022/11/16 02:37:33;;;;;;;32.87;25.50;;;;;;;;;;5036006;28;20212;-78
2022/11/16 02:40:00;;;;;;;34.80;24.87;;;;;;;;;;5033584;28;20204;-79
2022/11/16 02:42:30;;;;;;;34.97;26.07;;;;;;;;;;5018554;28;20192;-79
2022/11/16 02:44:57;;;;;;;35.00;26.07;;;;;;;;;;5014346;28;20192;-78
2022/11/16 02:47:26;;;;;;;31.83;24.80;;;;;;;;;;5034188;28;20208;-78
2022/11/16 02:49:55;;;;;;;30.93;24.00;;;;;;;;;;5035311;28;20185;-78
2022/11/16 02:52:23;;;;;;;28.57;23.10;;;;;;;;;;5018411;28;20188;-78
2022/11/16 02:54:49;;;;;;;28.83;22.07;;;;;;;;;;5023635;28;20180;-80
2022/11/16 02:57:25;;;;;;;32.13;23.73;;;;;;;;;;4992009;28;20223;-82
2022/11/16 02:59:53;;;;;;;28.40;22.50;;;;;;;;;;5017703;28;20219;-82
2022/11/16 03:02:23;;;;;;;29.10;22.77;;;;;;;;;;5018197;28;20318;-82
2022/11/16 03:04:51;;;;;;;24.17;21.27;;;;;;;;;;5018357;28;20269;-79
2022/11/16 03:07:20;;;;;;;30.13;23.17;;;;;;;;;;5020798;28;20207;-78
2022/11/16 03:09:48;;;;;;;28.20;22.00;;;;;;;;;;5017672;28;20185;-81
2022/11/16 03:12:16;;;;;;;25.37;21.97;;;;;;;;;;5035749;28;20311;-81
2022/11/16 03:15:08;;;;;;;28.43;22.47;;;;;;;;;;5016865;28;20234;-81
2022/11/16 03:17:40;;;;;;;28.87;21.43;;;;;;;;;;5013923;28;20287;-81
2022/11/16 03:20:09;;;;;;;26.23;21.67;;;;;;;;;;5005696;28;20224;-81
2022/11/16 03:22:43;;;;;;;25.67;21.77;;;;;;;;;;5014449;28;20182;-81
2022/11/16 03:25:10;;;;;;;26.67;21.87;;;;;;;;;;5026075;28;20188;-79
2022/11/16 03:27:38;;;;;;;31.00;22.10;;;;;;;;;;5017845;28;20181;-81
2022/11/16 03:30:06;;;;;;;28.93;22.67;;;;;;;;;;5017516;28;20203;-82
2022/11/16 03:32:38;;;;;;;29.17;23.20;;;;;;;;;;5018021;28;20176;-82
2022/11/16 03:35:12;;;;;;;30.23;22.70;;;;;;;;;;5035365;28;20205;-82
2022/11/16 03:37:38;;;;;;;35.17;25.03;;;;;;;;;;5017357;28;20183;-82
2022/11/16 03:40:04;;;;;;;33.60;25.17;;;;;;;;;;5017380;28;20215;-82
2022/11/16 03:42:31;;;;;;;34.50;25.43;;;;;;;;;;5017320;28;20188;-79
2022/11/16 03:44:57;;;;;;;34.17;25.67;;;;;;;;;;5017388;28;20192;-79
2022/11/16 03:47:23;;;;;;;37.13;26.70;;;;;;;;;;5001594;28;20193;-79
2022/11/16 03:49:49;;;;;;;36.40;26.77;;;;;;;;;;5023662;28;20213;-79
2022/11/16 03:52:16;;;;;;;36.80;26.73;;;;;;;;;;5001467;28;20192;-79
2022/11/16 03:54:42;;;;;;;36.63;26.90;;;;;;;;;;5017330;28;20185;-79
2022/11/16 03:57:14;;;;;;;37.83;26.93;;;;;;;;;;5016020;28;20185;-79
2022/11/16 03:59:40;;;;;;;39.33;29.03;;;;;;;;;;5018241;28;20212;-81
2022/11/16 04:02:06;;;;;;;47.00;29.50;;;;;;;;;;5001470;28;20310;-81
2022/11/16 04:29:15;;;;;;;30.60;24.70;;;;;;;;;;5053422;28;20202;-81
2022/11/16 04:39:59;;;;;;;28.70;23.77;;;;;;;;;;5051579;28;20277;-79
2022/11/16 04:42:25;;;;;;;26.20;21.97;;;;;;;;;;5018926;28;20274;-79
2022/11/16 04:47:35;;;;;;;27.10;24.13;;;;;;;;;;5038536;28;20293;-79
2022/11/16 04:50:01;;;;;;;25.83;22.20;;;;;;;;;;5019370;28;20195;-79
2022/11/16 04:52:27;;;;;;;27.50;23.00;;;;;;;;;;5035266;28;20196;-79
2022/11/16 04:54:53;;;;;;;26.57;22.33;;;;;;;;;;5017539;28;20218;-79
2022/11/16 04:57:19;;;;;;;26.27;22.50;;;;;;;;;;5052617;28;20188;-80
2022/11/16 04:59:45;;;;;;;25.33;21.40;;;;;;;;;;5021357;28;20226;-79
2022/11/16 05:02:11;;;;;;;24.67;22.07;;;;;;;;;;5029491;28;20184;-80
2022/11/16 05:04:38;;;;;;;26.73;22.97;;;;;;;;;;5051996;28;20206;-78
2022/11/16 05:07:11;;;;;;;28.20;23.23;;;;;;;;;;5036809;28;20217;-79
2022/11/16 05:09:40;;;;;;;24.97;22.03;;;;;;;;;;5035924;28;20184;-77
2022/11/16 05:12:06;;;;;;;29.23;24.47;;;;;;;;;;5055641;28;20182;-78
2022/11/16 05:14:32;;;;;;;28.60;24.57;;;;;;;;;;5039467;28;20218;-77
2022/11/16 05:16:58;;;;;;;30.93;24.43;;;;;;;;;;5057344;28;20195;-77
2022/11/16 05:22:09;;;;;;;14.57;11.67;;;;;;;;;;5057123;28;20264;-79
2022/11/16 05:24:35;;;;;;;14.57;10.40;;;;;;;;;;5039758;28;20187;-81
2022/11/16 05:27:11;;;;;;;11.30;9.73;;;;;;;;;;5039926;28;20231;-81
2022/11/16 05:29:37;;;;;;;11.17;8.37;;;;;;;;;;5057285;28;20206;-80
2022/11/16 05:32:03;;;;;;;8.77;7.03;;;;;;;;;;5024620;28;20188;-87
2022/11/16 05:34:29;;;;;;;9.93;7.40;;;;;;;;;;5040241;28;20187;-87
2022/11/16 05:36:56;;;;;;;10.47;6.67;;;;;;;;;;5057008;28;20188;-87
2022/11/16 05:39:22;;;;;;;9.85;7.43;;;;;;;;;;5056466;28;20471;-79
2022/11/16 05:41:48;;;;;;;7.23;5.50;;;;;;;;;;5039769;28;20205;-79
2022/11/16 05:44:15;;;;;;;8.30;5.17;;;;;;;;;;5057536;28;20191;-79
2022/11/16 05:46:41;;;;;;;7.63;5.20;;;;;;;;;;5057109;28;20176;-78
2022/11/16 05:49:07;;;;;;;7.90;5.40;;;;;;;;;;5039919;28;20192;-77
2022/11/16 05:51:37;;;;;;;9.90;5.47;;;;;;;;;;5057309;28;20164;-77
2022/11/16 05:54:03;;;;;;;10.70;6.93;;;;;;;;;;5057606;28;20186;-77
2022/11/16 05:56:30;;;;;;;10.57;9.10;;;;;;;;;;5039779;28;20172;-79
2022/11/16 05:58:57;;;;;;;12.57;10.83;;;;;;;;;;5057217;28;20180;-79
2022/11/16 06:01:23;;;;;;;14.50;12.50;;;;;;;;;;5055263;28;20191;-79
2022/11/16 06:03:49;;;;;;;14.03;12.60;;;;;;;;;;5019406;28;20192;-79
2022/11/16 06:06:15;;;;;;;16.63;13.67;;;;;;;;;;5036221;28;20180;-79
2022/11/16 06:08:41;;;;;;;15.73;12.93;;;;;;;;;;5037126;28;20287;-87
2022/11/16 06:11:08;;;;;;;17.93;12.80;;;;;;;;;;5037612;28;20318;-87
2022/11/16 06:13:34;;;;;;;13.63;12.13;;;;;;;;;;5038441;28;20273;-77
2022/11/16 06:16:01;;;;;;;15.10;11.47;;;;;;;;;;5039295;28;20176;-77
2022/11/16 06:18:27;;;;;;;14.20;10.83;;;;;;;;;;5057035;28;20258;-77
2022/11/16 06:20:54;;;;;;;12.80;11.60;;;;;;;;;;5056546;28;20211;-77
2022/11/16 06:23:20;;;;;;;15.10;11.20;;;;;;;;;;5038586;28;20172;-77
2022/11/16 06:25:46;;;;;;;12.37;10.63;;;;;;;;;;5038885;28;20251;-78
2022/11/16 06:28:12;;;;;;;12.47;8.90;;;;;;;;;;5038700;28;20218;-77
2022/11/16 06:30:39;;;;;;;12.07;8.80;;;;;;;;;;5038956;28;20239;-77
2022/11/16 06:33:05;;;;;;;13.50;9.40;;;;;;;;;;5038982;28;20199;-77
2022/11/16 06:35:31;;;;;;;12.30;8.07;;;;;;;;;;5038590;28;20183;-77
2022/11/16 06:37:57;;;;;;;12.00;8.33;;;;;;;;;;5035285;28;20189;-77
2022/11/16 06:40:24;;;;;;;14.53;8.50;;;;;;;;;;5037376;28;20208;-77
2022/11/16 06:42:50;;;;;;;10.37;7.87;;;;;;;;;;5038470;28;20176;-77
2022/11/16 06:45:16;;;;;;;13.10;7.70;;;;;;;;;;5038585;28;20210;-77
2022/11/16 06:47:42;;;;;;;11.53;6.90;;;;;;;;;;5038676;28;20176;-85
2022/11/16 06:50:08;;;;;;;14.20;6.93;;;;;;;;;;5038535;28;20184;-86
2022/11/16 06:52:34;;;;;;;8.37;6.23;;;;;;;;;;5054990;28;20176;-86
2022/11/16 06:55:00;;;;;;;11.43;6.47;;;;;;;;;;5056153;28;20172;-86
2022/11/16 06:57:26;;;;;;;10.17;6.43;;;;;;;;;;5038511;28;20195;-86
2022/11/16 06:59:52;;;;;;;12.87;6.20;;;;;;;;;;5055944;28;20227;-86
2022/11/16 07:02:20;;;;;;;8.17;5.83;;;;;;;;;;5038317;28;20269;-79
2022/11/16 07:04:46;;;;;;;9.13;5.30;;;;;;;;;;5038160;28;20271;-80
2022/11/16 07:07:12;;;;;;;11.73;4.90;;;;;;;;;;5055679;28;20180;-80
2022/11/16 07:09:38;;;;;;;13.10;5.20;;;;;;;;;;5054799;28;20214;-80
2022/11/16 07:12:04;;;;;;;9.80;4.87;;;;;;;;;;5054915;28;20255;-81
2022/11/16 07:14:30;;;;;;;10.20;4.83;;;;;;;;;;5037808;28;20180;-80
2022/11/16 07:16:56;;;;;;;8.37;4.50;;;;;;;;;;5037779;28;20183;-80
2022/11/16 07:19:22;;;;;;;7.47;4.10;;;;;;;;;;5034318;28;20294;-81
2022/11/16 07:21:48;;;;;;;11.73;4.63;;;;;;;;;;5054158;28;20184;-80
2022/11/16 07:24:14;;;;;;;9.47;4.27;;;;;;;;;;5055359;28;20185;-80
2022/11/16 07:26:40;;;;;;;10.83;4.33;;;;;;;;;;5055087;28;20258;-80
2022/11/16 07:29:06;;;;;;;10.83;4.30;;;;;;;;;;5021191;28;20176;-80
2022/11/16 07:31:32;;;;;;;7.80;3.97;;;;;;;;;;5037660;28;20175;-80
2022/11/16 07:33:58;;;;;;;7.67;3.63;;;;;;;;;;5054567;28;20175;-80
2022/11/16 07:36:24;;;;;;;7.00;3.60;;;;;;;;;;5020988;28;20176;-77
2022/11/16 07:38:50;;;;;;;7.90;3.67;;;;;;;;;;5020868;28;20180;-77
2022/11/16 07:41:17;;;;;;;10.70;3.63;;;;;;;;;;5037719;28;20207;-86
2022/11/16 07:43:44;;;;;;;10.13;4.03;;;;;;;;;;5055110;28;20172;-86
2022/11/16 07:46:11;;;;;;;8.00;3.57;;;;;;;;;;5037179;28;20212;-86
2022/11/16 07:48:37;;;;;;;10.03;3.67;;;;;;;;;;5055065;28;20183;-87
2022/11/16 07:51:04;;;;;;;9.53;4.00;;;;;;;;;;5021254;28;20184;-87
2022/11/16 07:53:31;;;;;;;9.07;4.33;;;;;;;;;;5034916;28;20193;-80
2022/11/16 07:55:57;;;;;;;8.67;4.13;;;;;;;;;;5033630;28;20212;-80
2022/11/16 07:58:23;;;;;;;6.33;4.20;;;;;;;;;;5043552;28;20176;-81
2022/11/16 08:00:49;;;;;;;11.53;4.37;;;;;;;;;;5037442;28;20211;-86
2022/11/16 08:03:16;;;;;;;9.60;4.40;;;;;;;;;;5037470;28;20183;-86
2022/11/16 08:05:43;;;;;;;9.13;4.70;;;;;;;;;;5054548;28;20179;-86
2022/11/16 08:08:09;;;;;;;8.53;4.77;;;;;;;;;;5037143;28;20176;-81
2022/11/16 08:10:35;;;;;;;9.30;4.63;;;;;;;;;;5053616;28;20187;-78
2022/11/16 08:13:02;;;;;;;8.07;4.67;;;;;;;;;;5036795;28;20187;-78
2022/11/16 08:15:28;;;;;;;9.63;4.70;;;;;;;;;;5053759;28;20180;-86
2022/11/16 08:17:54;;;;;;;12.80;4.90;;;;;;;;;;5054271;28;20191;-86
2022/11/16 08:20:20;;;;;;;10.73;5.00;;;;;;;;;;5020246;28;20222;-78
2022/11/16 08:22:46;;;;;;;10.23;5.00;;;;;;;;;;5036712;28;20233;-78
2022/11/16 08:25:12;;;;;;;10.93;4.87;;;;;;;;;;5036252;28;20238;-80
2022/11/16 08:27:38;;;;;;;9.20;5.47;;;;;;;;;;5036775;28;20203;-81
2022/11/16 08:30:08;;;;;;;10.03;4.63;;;;;;;;;;5020259;28;20176;-81
2022/11/16 08:32:34;;;;;;;9.97;4.87;;;;;;;;;;5036377;28;20230;-81
2022/11/16 08:35:00;;;;;;;10.67;5.17;;;;;;;;;;5054080;28;20214;-81
2022/11/16 08:37:27;;;;;;;10.40;4.50;;;;;;;;;;5036576;28;20188;-81
2022/11/16 08:39:53;;;;;;;9.07;4.57;;;;;;;;;;5019672;28;20243;-81
2022/11/16 08:42:20;;;;;;;12.33;4.30;;;;;;;;;;5054093;28;20176;-80
2022/11/16 08:44:46;;;;;;;9.80;4.43;;;;;;;;;;5036344;28;20187;-79
2022/11/16 08:47:12;;;;;;;9.60;3.90;;;;;;;;;;5035612;28;20233;-80
2022/11/16 08:49:38;;;;;;;11.03;4.10;;;;;;;;;;5053919;28;20261;-79
2022/11/16 08:52:04;;;;;;;11.03;3.80;;;;;;;;;;5036666;28;20223;-79
2022/11/16 08:54:30;;;;;;;7.47;3.67;;;;;;;;;;5024880;28;20185;-80
2022/11/16 08:56:56;;;;;;;6.93;3.67;;;;;;;;;;5041168;28;20192;-79
2022/11/16 08:59:22;;;;;;;8.27;3.70;;;;;;;;;;5016714;28;20197;-88
2022/11/16 09:01:48;;;;;;;9.73;3.83;;;;;;;;;;5039456;28;20172;-88
2022/11/16 09:04:15;;;;;;;8.23;4.00;;;;;;;;;;5000444;28;20180;-87
2022/11/16 09:06:41;;;;;;;9.00;3.80;;;;;;;;;;5035850;28;20238;-88
2022/11/16 09:09:07;;;;;;;8.87;3.77;;;;;;;;;;5032887;28;20181;-88
2022/11/16 09:11:33;;;;;;;13.53;3.73;;;;;;;;;;5029641;28;20211;-88
2022/11/16 09:13:59;;;;;;;8.00;3.27;;;;;;;;;;5036660;28;20184;-88
2022/11/16 09:16:26;;;;;;;10.90;3.67;;;;;;;;;;5019857;28;20188;-81
2022/11/16 09:18:53;;;;;;;10.90;3.40;;;;;;;;;;5019637;28;20172;-81
2022/11/16 09:21:26;;;;;;;12.00;3.43;;;;;;;;;;5036030;28;20242;-81
2022/11/16 09:23:53;;;;;;;8.93;3.43;;;;;;;;;;5053712;28;20176;-82
2022/11/16 09:26:21;;;;;;;12.27;3.57;;;;;;;;;;5035761;28;20227;-81
2022/11/16 09:28:54;;;;;;;8.63;3.00;;;;;;;;;;5035889;28;20172;-82
2022/11/16 09:31:20;;;;;;;8.13;3.37;;;;;;;;;;5035791;28;20192;-80
2022/11/16 09:33:46;;;;;;;11.60;3.10;;;;;;;;;;5035855;28;20410;-80
2022/11/16 09:36:14;;;;;;;7.33;2.80;;;;;;;;;;5019665;28;20195;-80
2022/11/16 09:38:41;;;;;;;8.53;2.87;;;;;;;;;;5053458;28;20176;-80
2022/11/16 09:41:25;;;;;;;9.23;3.07;;;;;;;;;;5053495;28;20215;-80
2022/11/16 09:44:11;;;;;;;9.73;3.03;;;;;;;;;;5035296;28;20184;-80
2022/11/16 09:46:37;;;;;;;9.00;3.33;;;;;;;;;;5042810;28;20216;-80
2022/11/16 09:49:09;;;;;;;7.47;3.03;;;;;;;;;;5035743;28;20203;-82
2022/11/16 09:51:36;;;;;;;7.73;2.67;;;;;;;;;;5035667;28;20180;-81
2022/11/16 09:54:04;;;;;;;8.30;3.20;;;;;;;;;;5035526;28;20267;-82
2022/11/16 09:56:34;;;;;;;6.27;2.50;;;;;;;;;;5035504;28;20175;-82
2022/11/16 09:59:09;;;;;;;9.03;2.60;;;;;;;;;;5055775;28;20279;-81
2022/11/16 10:01:40;;;;;;;8.73;3.17;;;;;;;;;;5056523;28;20172;-81
2022/11/16 10:04:13;;;;;;;9.27;3.00;;;;;;;;;;5054205;28;20180;-81
2022/11/16 10:06:52;;;;;;;7.20;2.63;;;;;;;;;;5039101;28;20179;-88
2022/11/16 10:09:19;;;;;;;10.10;3.17;;;;;;;;;;5039303;28;20175;-89
2022/11/16 10:11:55;;;;;;;8.80;2.70;;;;;;;;;;5039419;28;20194;-88
2022/11/16 10:14:37;;;;;;;7.50;2.80;;;;;;;;;;5029217;28;20184;-89
2022/11/16 10:17:09;;;;;;;7.10;2.80;;;;;;;;;;5019702;28;20180;-89
2022/11/16 10:19:45;;;;;;;8.40;2.33;;;;;;;;;;5019238;28;20216;-89
2022/11/16 10:22:29;;;;;;;8.53;2.63;;;;;;;;;;5019516;28;20203;-80
2022/11/16 10:24:56;;;;;;;6.30;2.57;;;;;;;;;;5036830;28;20187;-80
2022/11/16 10:27:27;;;;;;;8.90;2.43;;;;;;;;;;5036601;28;20217;-80
2022/11/16 10:30:12;;;;;;;7.33;2.47;;;;;;;;;;5021551;28;20185;-80
2022/11/16 10:32:44;;;;;;;7.70;2.57;;;;;;;;;;5035488;28;20203;-80
2022/11/16 10:35:15;;;;;;;8.10;2.57;;;;;;;;;;5036492;28;20181;-80
2022/11/16 10:37:48;;;;;;;10.93;2.60;;;;;;;;;;5035375;28;20180;-80
2022/11/16 10:40:26;;;;;;;7.90;2.40;;;;;;;;;;5036473;28;20235;-89
2022/11/16 10:43:00;;;;;;;6.50;2.50;;;;;;;;;;5037556;28;20183;-89
2022/11/16 10:45:31;;;;;;;7.93;2.57;;;;;;;;;;5040990;28;20260;-89
2022/11/16 10:47:59;;;;;;;8.43;2.40;;;;;;;;;;5057623;28;20180;-88
2022/11/16 10:50:31;;;;;;;8.37;2.63;;;;;;;;;;5042325;28;20184;-88
2022/11/16 10:52:57;;;;;;;9.83;2.90;;;;;;;;;;5041003;28;20187;-88
2022/11/16 10:55:24;;;;;;;7.67;2.60;;;;;;;;;;5038304;28;20181;-77
2022/11/16 10:58:00;;;;;;;8.67;2.80;;;;;;;;;;5036524;28;20202;-77
2022/11/16 11:00:35;;;;;;;9.53;3.17;;;;;;;;;;5037818;28;20208;-77
2022/11/16 11:03:02;;;;;;;9.30;2.87;;;;;;;;;;5037953;28;20172;-77
2022/11/16 11:05:28;;;;;;;6.73;2.97;;;;;;;;;;5038050;28;20253;-77
2022/11/16 11:08:14;;;;;;;8.27;2.60;;;;;;;;;;5036779;28;20187;-77
2022/11/16 11:10:41;;;;;;;7.13;2.93;;;;;;;;;;5048159;28;20191;-77
2022/11/16 11:13:10;;;;;;;8.93;3.00;;;;;;;;;;5037547;28;20184;-78
2022/11/16 11:15:41;;;;;;;8.87;3.40;;;;;;;;;;5037562;28;20309;-78
2022/11/16 11:18:10;;;;;;;7.67;3.10;;;;;;;;;;5037804;28;20187;-78
2022/11/16 11:20:37;;;;;;;7.53;3.30;;;;;;;;;;5055288;28;20233;-78
2022/11/16 11:23:05;;;;;;;8.13;3.47;;;;;;;;;;5028488;28;20187;-78
2022/11/16 11:25:33;;;;;;;7.10;3.10;;;;;;;;;;5017853;28;20231;-78
2022/11/16 11:28:20;;;;;;;12.57;3.73;;;;;;;;;;5018230;28;20191;-88
2022/11/16 11:30:54;;;;;;;9.27;3.13;;;;;;;;;;5017967;28;20181;-88
2022/11/16 11:33:22;;;;;;;10.57;3.47;;;;;;;;;;5035580;28;20173;-88
2022/11/16 11:35:56;;;;;;;10.07;3.53;;;;;;;;;;5018064;28;20176;-88
2022/11/16 11:38:22;;;;;;;9.43;3.40;;;;;;;;;;5017650;28;20176;-88
2022/11/16 11:41:11;;;;;;;10.90;3.10;;;;;;;;;;5017640;28;20215;-88
2022/11/16 11:43:37;;;;;;;5.67;3.00;;;;;;;;;;5017466;28;20183;-88
2022/11/16 11:46:06;;;;;;;9.83;3.10;;;;;;;;;;5017839;28;20181;-88
2022/11/16 11:48:46;;;;;;;6.77;2.77;;;;;;;;;;5017566;28;20181;-88
2022/11/16 11:51:32;;;;;;;10.67;2.90;;;;;;;;;;5017718;28;20270;-88
2022/11/16 11:53:59;;;;;;;7.83;2.80;;;;;;;;;;5018094;28;20234;-87
2022/11/16 11:56:27;;;;;;;8.17;3.27;;;;;;;;;;5034377;28;20192;-88
2022/11/16 11:58:53;;;;;;;7.60;2.87;;;;;;;;;;5034224;28;20184;-88
2022/11/16 12:01:22;;;;;;;6.40;2.90;;;;;;;;;;5033870;28;20215;-80
2022/11/16 12:03:54;;;;;;;6.90;2.73;;;;;;;;;;5033884;28;20177;-79
2022/11/16 12:06:26;;;;;;;11.30;3.00;;;;;;;;;;5035142;28;20169;-80
2022/11/16 12:09:07;;;;;;;8.20;2.80;;;;;;;;;;5035013;28;20179;-80
2022/11/16 12:11:49;;;;;;;9.33;2.90;;;;;;;;;;5033625;28;20173;-80
2022/11/16 12:14:14;;;;;;;7.93;2.90;;;;;;;;;;5034928;28;20181;-80
2022/11/16 12:17:00;;;;;;;6.87;2.70;;;;;;;;;;5033841;28;20169;-80
2022/11/16 12:19:26;;;;;;;7.23;2.60;;;;;;;;;;5033812;28;20208;-81
2022/11/16 12:22:02;;;;;;;6.57;2.57;;;;;;;;;;5044742;28;20184;-82
2022/11/16 12:24:34;;;;;;;10.13;2.60;;;;;;;;;;5037384;28;20183;-81
2022/11/16 12:27:10;;;;;;;9.90;2.87;;;;;;;;;;5036917;28;20250;-81
2022/11/16 12:29:42;;;;;;;8.83;3.00;;;;;;;;;;5036947;28;20190;-81
2022/11/16 12:32:08;;;;;;;8.67;2.90;;;;;;;;;;5054745;28;20199;-87
2022/11/16 12:34:37;;;;;;;6.97;2.70;;;;;;;;;;5036903;28;20184;-81
2022/11/16 12:37:17;;;;;;;8.70;2.43;;;;;;;;;;5036458;28;20176;-81
2022/11/16 12:39:49;;;;;;;5.97;2.40;;;;;;;;;;5032766;28;20208;-81
2022/11/16 12:42:23;;;;;;;8.57;2.37;;;;;;;;;;5034341;28;20200;-81
2022/11/16 12:44:55;;;;;;;8.57;2.10;;;;;;;;;;5034624;28;20168;-81
2022/11/16 12:47:27;;;;;;;7.50;2.60;;;;;;;;;;5017042;28;20177;-88
2022/11/16 12:49:59;;;;;;;7.77;2.10;;;;;;;;;;5034310;28;20243;-88
2022/11/16 12:52:44;;;;;;;7.33;2.00;;;;;;;;;;5034279;28;20235;-81
2022/11/16 12:55:20;;;;;;;8.33;2.47;;;;;;;;;;5034458;28;20203;-81
2022/11/16 12:57:50;;;;;;;7.97;2.17;;;;;;;;;;5034832;28;20230;-81
2022/11/16 13:00:18;;;;;;;8.93;2.13;;;;;;;;;;5017305;28;20216;-81
2022/11/16 13:02:53;;;;;;;9.40;2.37;;;;;;;;;;5034203;28;20181;-81
2022/11/16 13:05:39;;;;;;;6.07;2.30;;;;;;;;;;5016566;28;20176;-81
2022/11/16 13:08:10;;;;;;;8.33;2.47;;;;;;;;;;5016529;28;20176;-88
2022/11/16 13:10:41;;;;;;;9.70;2.30;;;;;;;;;;5016950;28;20180;-88
2022/11/16 13:13:13;;;;;;;8.03;2.23;;;;;;;;;;5016647;28;20190;-88
2022/11/16 13:15:40;;;;;;;6.97;2.20;;;;;;;;;;5034062;28;20226;-88
2022/11/16 13:18:11;;;;;;;12.67;2.90;;;;;;;;;;5034250;28;20247;-79
2022/11/16 13:20:37;;;;;;;10.77;2.70;;;;;;;;;;5034094;28;20438;-79
2022/11/16 13:23:26;;;;;;;7.27;2.20;;;;;;;;;;5033925;28;20169;-79
2022/11/16 13:25:59;;;;;;;6.33;2.30;;;;;;;;;;5016323;28;20325;-87
2022/11/16 13:28:36;;;;;;;8.77;2.33;;;;;;;;;;5034389;28;20252;-80
2022/11/16 13:31:07;;;;;;;10.80;2.30;;;;;;;;;;5033827;28;20259;-80
2022/11/16 13:33:33;;;;;;;7.53;2.30;;;;;;;;;;5018765;28;20181;-78
2022/11/16 13:36:19;;;;;;;6.83;1.93;;;;;;;;;;5020753;28;20192;-78
2022/11/16 13:38:51;;;;;;;7.20;2.00;;;;;;;;;;5020198;28;20184;-78
2022/11/16 13:41:30;;;;;;;7.90;1.97;;;;;;;;;;5020715;28;20232;-77
2022/11/16 13:43:56;;;;;;;5.60;1.90;;;;;;;;;;5020200;28;20176;-78
2022/11/16 13:46:23;;;;;;;5.27;2.10;;;;;;;;;;5016639;28;20192;-78
2022/11/16 13:48:50;;;;;;;10.10;2.10;;;;;;;;;;5020883;28;20219;-78
2022/11/16 13:51:19;;;;;;;6.30;1.90;;;;;;;;;;5020019;28;20192;-78
2022/11/16 13:53:52;;;;;;;7.23;2.03;;;;;;;;;;5020485;28;20185;-77
2022/11/16 13:56:20;;;;;;;7.27;1.80;;;;;;;;;;5037542;28;20187;-78
2022/11/16 13:58:48;;;;;;;6.40;2.07;;;;;;;;;;5020234;28;20207;-79
2022/11/16 14:01:15;;;;;;;5.67;1.90;;;;;;;;;;5020079;28;20231;-79
2022/11/16 14:03:51;;;;;;;6.27;2.03;;;;;;;;;;5036542;28;20180;-80
2022/11/16 14:06:23;;;;;;;6.80;2.10;;;;;;;;;;5037358;28;20173;-79
2022/11/16 14:08:58;;;;;;;6.57;2.23;;;;;;;;;;5037468;28;20200;-79
2022/11/16 14:11:32;;;;;;;7.63;2.30;;;;;;;;;;5019704;28;20185;-80
2022/11/16 14:14:00;;;;;;;6.27;2.20;;;;;;;;;;5037165;28;20239;-80
2022/11/16 14:16:26;;;;;;;8.13;2.33;;;;;;;;;;5019641;28;20204;-80
2022/11/16 14:18:56;;;;;;;7.17;1.93;;;;;;;;;;5037363;28;20180;-79
2022/11/16 14:21:25;;;;;;;5.87;1.70;;;;;;;;;;5048755;28;20257;-79
2022/11/16 14:24:10;;;;;;;7.73;2.00;;;;;;;;;;5056704;28;20175;-80
2022/11/16 14:26:47;;;;;;;8.53;1.93;;;;;;;;;;5048448;28;20216;-79
2022/11/16 14:29:17;;;;;;;9.40;2.13;;;;;;;;;;5019080;28;20173;-79
2022/11/16 14:31:48;;;;;;;5.83;1.90;;;;;;;;;;5036770;28;20157;-88
2022/11/16 14:34:19;;;;;;;6.00;2.10;;;;;;;;;;5019064;28;20172;-88
2022/11/16 14:36:45;;;;;;;8.80;2.23;;;;;;;;;;5018849;28;20180;-87
2022/11/16 14:39:30;;;;;;;6.90;2.23;;;;;;;;;;5019083;28;20181;-88
2022/11/16 14:42:02;;;;;;;6.43;2.33;;;;;;;;;;5017343;28;20271;-87
2022/11/16 14:44:31;;;;;;;7.17;2.13;;;;;;;;;;5024071;28;20188;-88
2022/11/16 14:46:57;;;;;;;5.43;1.87;;;;;;;;;;5036238;28;20176;-88
2022/11/16 14:49:24;;;;;;;5.43;1.93;;;;;;;;;;5015263;28;20188;-81
2022/11/16 14:51:53;;;;;;;6.40;2.00;;;;;;;;;;4999162;28;20181;-82
2022/11/16 14:54:24;;;;;;;5.93;1.80;;;;;;;;;;5022275;28;20240;-81
2022/11/16 14:57:04;;;;;;;6.00;1.73;;;;;;;;;;5033038;28;20188;-81
2022/11/16 14:59:30;;;;;;;6.00;1.60;;;;;;;;;;5018024;28;20274;-81
2022/11/16 15:01:57;;;;;;;6.47;1.97;;;;;;;;;;5035424;28;20215;-81
2022/11/16 15:04:25;;;;;;;6.73;2.43;;;;;;;;;;5018499;28;20181;-81
2022/11/16 15:06:52;;;;;;;4.43;1.87;;;;;;;;;;5036520;28;20234;-80
2022/11/16 15:09:29;;;;;;;7.27;2.50;;;;;;;;;;5025040;28;20181;-80
2022/11/16 15:14:49;;;;;;;6.70;2.37;;;;;;;;;;5035413;28;20203;-79
2022/11/16 15:17:16;;;;;;;8.33;2.67;;;;;;;;;;5017945;28;20223;-79
2022/11/16 15:19:42;;;;;;;7.80;2.50;;;;;;;;;;5017842;28;20260;-79
2022/11/16 15:22:17;;;;;;;9.63;2.87;;;;;;;;;;5018146;28;20172;-79
2022/11/16 15:24:43;;;;;;;7.90;2.50;;;;;;;;;;5035698;28;20169;-79
2022/11/16 15:27:25;;;;;;;6.50;2.30;;;;;;;;;;5037496;28;20231;-80